Time;durP1;ratioP1;P1;durP2;ratioP2;P2;SDS_P1;SDS_P2;PMS_P1;PMS_P2;Temp;Humidity;BMP_temperature;BMP_pressure;BME280_temperature;BME280_humidity;BME280_pressure;Samples;Min_cycle;Max_cycle;Signal;HPM_P1;HPM_P2
2021/09/27 00:03:26;;;;;;;8.27;3.92;;;;;;;22.68;43.93;95306.22;5041155;22;20081;-77
2021/09/27 00:05:51;;;;;;;7.13;4.00;;;;;;;22.67;43.95;95304.75;4987968;28;20128;-77
2021/09/27 00:08:17;;;;;;;5.70;3.58;;;;;;;22.61;44.13;95312.16;4988173;28;20117;-77
2021/09/27 00:10:50;;;;;;;9.10;3.85;;;;;;;22.63;44.08;95315.88;5003541;28;20026;-77
2021/09/27 00:13:16;;;;;;;5.47;3.60;;;;;;;22.60;44.09;95316.13;5003714;28;20030;-77
2021/09/27 00:15:45;;;;;;;6.00;3.92;;;;;;;22.59;44.04;95320.09;4987972;28;20475;-77
2021/09/27 00:18:11;;;;;;;7.28;3.75;;;;;;;22.55;43.93;95319.59;4988438;28;20030;-77
2021/09/27 00:20:41;;;;;;;6.45;3.60;;;;;;;22.18;43.84;95253.06;4988242;28;20041;-77
2021/09/27 00:23:07;;;;;;;7.00;3.90;;;;;;;22.53;44.08;95316.63;4986587;28;20026;-77
2021/09/27 00:25:32;;;;;;;6.93;3.78;;;;;;;22.52;44.17;95320.59;4987897;28;20042;-77
2021/09/27 00:27:57;;;;;;;5.63;3.78;;;;;;;22.50;44.07;95323.06;4987833;28;20519;-77
2021/09/27 00:30:23;;;;;;;5.88;4.05;;;;;;;22.51;44.09;95322.56;4988155;28;20042;-76
2021/09/27 00:32:48;;;;;;;5.60;3.58;;;;;;;22.45;44.23;95307.47;4988955;28;20030;-77
2021/09/27 00:35:17;;;;;;;6.10;3.35;;;;;;;22.43;44.35;95301.78;4995347;28;20022;-76
2021/09/27 00:37:42;;;;;;;6.55;3.80;;;;;;;22.42;44.53;95305.78;5012397;28;20053;-76
2021/09/27 00:40:09;;;;;;;7.18;3.97;;;;;;;22.41;44.21;95298.09;5016422;28;20030;-76
2021/09/27 00:42:34;;;;;;;6.40;3.70;;;;;;;22.43;44.23;95301.78;5013886;28;20022;-76
2021/09/27 00:45:00;;;;;;;5.70;3.85;;;;;;;22.39;44.22;95295.88;4977133;28;20041;-76
2021/09/27 00:47:25;;;;;;;5.93;3.25;;;;;;;22.40;43.88;95297.34;4994246;28;20073;-76
2021/09/27 00:49:51;;;;;;;7.82;3.90;;;;;;;22.41;44.50;95299.56;4971386;28;20026;-76
2021/09/27 00:52:17;;;;;;;6.72;3.75;;;;;;;22.38;44.15;95299.81;4972825;28;20037;-76
2021/09/27 00:54:42;;;;;;;5.50;3.67;;;;;;;22.37;44.44;95295.59;4972854;28;20105;-76
2021/09/27 00:57:14;;;;;;;7.05;3.45;;;;;;;22.36;44.38;95285.97;4971106;28;20027;-77
2021/09/27 00:59:41;;;;;;;5.72;3.60;;;;;;;22.31;44.30;95284.00;4955363;28;20054;-77
2021/09/27 01:02:07;;;;;;;5.43;3.55;;;;;;;22.26;44.56;95270.41;4955157;28;20031;-77
2021/09/27 01:04:32;;;;;;;7.70;3.83;;;;;;;22.22;44.28;95259.75;4987398;28;20057;-77
2021/09/27 01:07:22;;;;;;;6.50;3.35;;;;;;;22.34;44.40;95277.56;4971535;28;20023;-76
2021/09/27 01:09:55;;;;;;;4.88;3.28;;;;;;;22.30;44.33;95268.91;4970537;28;20097;-76
2021/09/27 01:12:49;;;;;;;4.78;3.42;;;;;;;22.28;44.73;95286.97;4970980;28;20026;-76
2021/09/27 01:15:27;;;;;;;6.15;4.32;;;;;;;22.28;44.84;95279.53;4970832;28;20417;-77
2021/09/27 01:18:02;;;;;;;5.32;3.30;;;;;;;22.26;44.68;95282.03;4972211;28;20031;-77
2021/09/27 01:20:52;;;;;;;8.77;4.28;;;;;;;22.25;44.65;95269.66;4970691;28;20069;-76
2021/09/27 01:23:32;;;;;;;6.40;3.30;;;;;;;22.23;44.33;95272.13;4971919;28;20114;-77
2021/09/27 01:26:47;;;;;;;6.72;4.10;;;;;;;22.21;44.35;95269.16;4971641;28;20037;-76
2021/09/27 01:29:29;;;;;;;6.68;4.05;;;;;;;22.19;44.78;95271.59;4900966;29;20142;-77
2021/09/27 01:32:16;;;;;;;5.55;3.40;;;;;;;22.21;44.95;95277.34;4962628;28;20493;-77
2021/09/27 01:34:43;;;;;;;5.40;3.72;;;;;;;22.16;44.70;95261.69;4971746;28;20027;-77
2021/09/27 01:37:25;;;;;;;6.20;3.53;;;;;;;22.20;44.84;95273.09;4971149;28;20026;-77
2021/09/27 01:40:09;;;;;;;5.97;3.22;;;;;;;22.18;44.82;95275.56;4971485;28;20046;-76
2021/09/27 01:43:04;;;;;;;4.93;3.42;;;;;;;21.98;44.57;95256.75;4971681;28;20031;-77
2021/09/27 01:45:40;;;;;;;6.60;3.67;;;;;;;22.13;44.48;95272.84;4990462;28;20595;-77
2021/09/27 01:48:21;;;;;;;7.43;3.63;;;;;;;22.15;44.83;95273.06;5008390;28;20025;-77
2021/09/27 01:50:59;;;;;;;5.30;3.60;;;;;;;22.13;44.72;95268.13;4994086;28;20092;-77
2021/09/27 01:53:35;;;;;;;6.47;3.78;;;;;;;22.10;44.76;95279.28;4970627;28;20058;-77
2021/09/27 01:56:06;;;;;;;6.40;4.20;;;;;;;21.93;44.48;95254.78;4972172;28;20027;-77
2021/09/27 01:58:56;;;;;;;6.32;3.65;;;;;;;22.08;44.45;95282.47;4983881;28;20031;-77
2021/09/27 02:01:37;;;;;;;6.10;3.38;;;;;;;22.05;44.46;95272.59;4984755;28;20019;-76
2021/09/27 02:04:10;;;;;;;7.00;3.90;;;;;;;21.72;44.91;95227.56;4971021;28;20051;-77
2021/09/27 02:06:41;;;;;;;6.28;3.42;;;;;;;22.08;44.63;95276.31;4954388;28;20278;-77
2021/09/27 02:09:15;;;;;;;6.50;3.38;;;;;;;22.03;44.70;95269.63;4954337;28;20023;-77
2021/09/27 02:11:43;;;;;;;8.38;4.05;;;;;;;22.05;45.18;95278.03;4971811;28;20042;-77
2021/09/27 02:14:36;;;;;;;6.75;3.88;;;;;;;22.07;44.50;95281.00;4987609;28;20034;-77
2021/09/27 02:17:23;;;;;;;6.38;3.80;;;;;;;22.00;44.74;95270.63;5008792;28;20033;-76
2021/09/27 02:19:58;;;;;;;5.75;3.65;;;;;;;21.98;44.98;95262.19;5008779;28;20477;-77
2021/09/27 02:22:31;;;;;;;9.23;3.60;;;;;;;21.96;44.92;95270.13;5008515;28;20065;-77
2021/09/27 02:25:06;;;;;;;5.05;3.63;;;;;;;21.97;44.55;95277.03;5009447;28;20041;-77
2021/09/27 02:27:31;;;;;;;5.35;3.90;;;;;;;22.00;45.28;95276.06;5009321;28;20049;-77
2021/09/27 02:29:57;;;;;;;6.63;3.78;;;;;;;21.63;45.04;95219.69;5009409;28;20088;-77
2021/09/27 02:32:32;;;;;;;8.40;3.90;;;;;;;21.97;45.15;95270.84;5008248;28;20034;-76
2021/09/27 02:35:14;;;;;;;6.82;3.67;;;;;;;21.99;45.58;95263.69;5024182;28;20030;-77
2021/09/27 02:38:15;;;;;;;5.75;3.60;;;;;;;21.97;45.58;95260.72;5009710;28;20059;-77
2021/09/27 02:40:44;;;;;;;6.10;3.70;;;;;;;21.99;45.26;95263.69;5008526;28;20081;-76
2021/09/27 02:43:10;;;;;;;5.35;3.35;;;;;;;21.98;45.42;95267.63;5009620;28;20502;-76
2021/09/27 02:45:37;;;;;;;6.47;3.30;;;;;;;21.97;45.65;95266.16;5024490;28;20049;-77
2021/09/27 02:48:13;;;;;;;7.40;4.03;;;;;;;21.94;45.35;95267.16;5007276;28;20036;-76
2021/09/27 02:50:43;;;;;;;6.70;3.58;;;;;;;21.93;45.74;95264.94;5009429;28;20041;-77
2021/09/27 02:53:09;;;;;;;5.53;3.10;;;;;;;21.90;45.02;95268.63;5008771;28;20061;-77
2021/09/27 02:55:41;;;;;;;5.90;3.30;;;;;;;21.72;45.38;95255.50;5008803;28;20029;-76
2021/09/27 02:58:27;;;;;;;10.23;3.88;;;;;;;21.90;45.49;95278.75;5007567;28;20049;-76
2021/09/27 03:01:12;;;;;;;5.57;3.50;;;;;;;21.68;44.90;95238.69;5024186;28;20556;-75
2021/09/27 03:03:41;;;;;;;5.10;3.30;;;;;;;21.92;45.33;95284.44;5008400;28;20064;-76
2021/09/27 03:06:34;;;;;;;7.35;3.65;;;;;;;21.88;45.61;95279.25;5008222;28;20197;-76
2021/09/27 03:09:33;;;;;;;5.20;3.92;;;;;;;21.81;45.79;95268.88;5002028;28;20031;-76
2021/09/27 03:12:22;;;;;;;6.85;4.00;;;;;;;21.80;45.70;95266.63;4967932;28;20021;-76
2021/09/27 03:15:21;;;;;;;9.63;3.58;;;;;;;21.80;45.40;95272.09;4969362;28;20046;-76
2021/09/27 03:17:58;;;;;;;9.35;4.57;;;;;;;21.77;45.62;95256.75;4968564;28;20065;-76
2021/09/27 03:20:32;;;;;;;7.35;4.28;;;;;;;21.78;45.09;95260.94;4967597;28;20497;-76
2021/09/27 03:23:05;;;;;;;5.93;3.40;;;;;;;21.74;45.54;95274.78;4969306;28;20652;-75
2021/09/27 03:25:51;;;;;;;5.75;3.72;;;;;;;21.75;44.95;95272.78;4953080;28;20062;-76
2021/09/27 03:28:37;;;;;;;7.85;3.97;;;;;;;21.76;44.98;95266.88;4968926;28;20096;-76
2021/09/27 03:31:22;;;;;;;7.15;3.42;;;;;;;21.75;45.27;95259.19;4988945;28;20026;-76
2021/09/27 03:33:52;;;;;;;7.38;3.33;;;;;;;21.75;45.58;95256.47;4988391;28;20026;-76
2021/09/27 03:36:56;;;;;;;4.82;3.20;;;;;;;21.73;45.17;95272.56;4989034;28;20041;-76
2021/09/27 03:39:27;;;;;;;7.20;3.78;;;;;;;21.72;45.21;95260.19;4928146;29;20035;-78
2021/09/27 03:42:00;;;;;;;5.45;3.60;;;;;;;21.54;45.45;95222.63;4928997;29;20046;-76
2021/09/27 03:44:50;;;;;;;6.25;3.90;;;;;;;21.70;45.84;95243.63;4946404;28;20096;-76
2021/09/27 03:47:54;;;;;;;7.15;3.40;;;;;;;21.48;45.44;95208.31;5000147;28;20913;-75
2021/09/27 03:50:37;;;;;;;6.15;3.38;;;;;;;21.62;45.50;95245.38;5009257;28;20042;-76
2021/09/27 03:53:08;;;;;;;5.50;3.40;;;;;;;21.61;45.68;95249.31;5012722;28;20035;-75
2021/09/27 03:55:45;;;;;;;7.85;3.70;;;;;;;21.61;45.83;95238.44;4982889;28;20034;-75
2021/09/27 03:58:15;;;;;;;7.50;4.25;;;;;;;21.63;45.46;95238.72;4988616;28;20065;-76
2021/09/27 04:00:46;;;;;;;7.35;3.75;;;;;;;21.58;45.42;95236.69;4987543;28;20031;-76
2021/09/27 04:03:48;;;;;;;5.35;3.50;;;;;;;21.60;45.86;95236.97;4986851;28;20200;-76
2021/09/27 04:06:38;;;;;;;5.70;3.70;;;;;;;21.60;45.14;95236.97;4988852;28;20027;-76
2021/09/27 04:09:31;;;;;;;6.28;3.70;;;;;;;21.54;45.27;95230.78;4988581;28;20037;-76
2021/09/27 04:12:08;;;;;;;6.07;3.60;;;;;;;21.52;45.75;95235.94;4969443;28;20625;-76
2021/09/27 04:14:35;;;;;;;6.25;3.95;;;;;;;21.48;45.61;95235.47;4987095;28;20480;-76
2021/09/27 04:17:16;;;;;;;5.65;3.50;;;;;;;21.52;45.42;95252.25;4986861;28;20500;-76
2021/09/27 04:20:02;;;;;;;8.43;5.43;;;;;;;21.48;45.49;95251.78;4988139;28;20034;-76
2021/09/27 04:22:29;;;;;;;6.95;3.55;;;;;;;21.29;45.74;95223.53;4986668;28;20026;-76
2021/09/27 04:24:54;;;;;;;8.48;4.45;;;;;;;21.47;46.03;95255.72;4986877;28;20027;-76
2021/09/27 04:27:50;;;;;;;6.53;3.78;;;;;;;21.46;45.68;95254.97;4987946;28;20037;-75
2021/09/27 04:30:25;;;;;;;5.20;3.70;;;;;;;21.46;45.86;95259.66;4992046;28;20030;-76
2021/09/27 04:33:01;;;;;;;7.65;4.20;;;;;;;21.47;45.61;95261.88;5007024;28;20041;-77
2021/09/27 04:35:44;;;;;;;7.35;4.10;;;;;;;21.45;46.33;95258.16;5005879;28;20030;-76
2021/09/27 04:38:09;;;;;;;8.02;4.38;;;;;;;21.45;45.73;95255.44;4986840;28;20165;-75
2021/09/27 04:40:38;;;;;;;7.20;4.35;;;;;;;21.46;46.06;95254.97;4968979;28;20125;-74
2021/09/27 04:43:23;;;;;;;9.73;4.78;;;;;;;21.68;45.28;95256.97;4987701;28;20030;-78
2021/09/27 04:45:55;;;;;;;5.65;3.72;;;;;;;21.69;45.48;95228.59;4986646;28;20512;-72
2021/09/27 04:48:35;;;;;;;5.68;3.50;;;;;;;21.97;45.25;95249.84;4984697;28;20031;-72
2021/09/27 04:51:22;;;;;;;6.03;3.35;;;;;;;22.07;45.16;95242.19;4986197;28;20100;-73
2021/09/27 04:54:23;;;;;;;7.05;4.03;;;;;;;22.17;45.73;95252.31;4980951;28;20033;-72
2021/09/27 04:56:57;;;;;;;5.97;3.80;;;;;;;22.30;45.74;95266.19;4955581;28;20030;-71
2021/09/27 05:00:10;;;;;;;7.30;3.30;;;;;;;22.41;45.60;95260.75;4985750;28;20018;-73
2021/09/27 05:02:44;;;;;;;5.88;3.85;;;;;;;22.54;45.65;95269.88;4906983;29;20060;-73
2021/09/27 05:05:28;;;;;;;7.60;3.53;;;;;;;22.66;45.63;95286.91;4965315;28;20113;-73
2021/09/27 05:08:05;;;;;;;7.60;3.38;;;;;;;22.54;45.44;95252.78;4983739;28;20037;-77
2021/09/27 05:10:50;;;;;;;5.63;3.78;;;;;;;22.87;45.37;95285.38;4985859;28;20027;-76
2021/09/27 05:13:33;;;;;;;7.40;3.55;;;;;;;22.97;44.91;95296.31;4976440;28;20049;-80
2021/09/27 05:16:31;;;;;;;6.03;3.83;;;;;;;23.07;44.72;95305.66;4984345;28;20037;-74
2021/09/27 05:19:15;;;;;;;4.53;2.90;;;;;;;23.28;44.75;95293.22;4978204;28;20139;-74
2021/09/27 05:22:06;;;;;;;5.20;3.30;;;;;;;23.41;44.87;95291.41;4984947;28;20022;-74
2021/09/27 05:24:50;;;;;;;5.10;3.03;;;;;;;23.55;45.20;95300.53;4989077;28;20049;-74
2021/09/27 05:27:34;;;;;;;5.35;3.30;;;;;;;23.71;45.41;95286.09;4989949;28;20022;-83
2021/09/27 05:30:33;;;;;;;3.92;3.10;;;;;;;23.86;45.54;95292.69;4991650;28;20030;-77
2021/09/27 05:33:01;;;;;;;5.72;3.72;;;;;;;24.06;45.70;95305.94;4985780;28;20026;-75
2021/09/27 05:35:53;;;;;;;7.72;3.78;;;;;;;24.12;45.27;95296.47;4990377;28;20511;-70
2021/09/27 05:39:07;;;;;;;5.63;3.08;;;;;;;24.29;45.45;95297.09;4987895;28;20026;-77
2021/09/27 05:41:51;;;;;;;5.80;3.03;;;;;;;24.36;48.01;95291.09;4979524;28;20047;-77
2021/09/27 05:44:19;;;;;;;5.22;3.60;;;;;;;24.29;46.79;95269.81;4983634;28;20057;-78
2021/09/27 05:46:57;;;;;;;6.93;3.30;;;;;;;24.43;44.92;95296.75;4991144;28;20408;-77
2021/09/27 05:49:50;;;;;;;4.45;3.25;;;;;;;24.52;43.95;95298.44;4988737;28;20496;-76
2021/09/27 05:52:21;;;;;;;6.72;3.40;;;;;;;24.37;43.37;95254.38;4993987;28;20042;-75
2021/09/27 05:55:00;;;;;;;4.93;2.90;;;;;;;24.56;43.30;95277.06;4989223;28;20015;-80
2021/09/27 05:57:53;;;;;;;5.82;3.20;;;;;;;24.77;43.43;95291.72;4987993;28;20030;-76
2021/09/27 06:00:34;;;;;;;5.07;3.70;;;;;;;24.87;42.75;95290.88;4988235;28;20034;-76
2021/09/27 06:03:37;;;;;;;5.47;3.25;;;;;;;24.99;42.82;95290.28;4988344;28;20060;-78
2021/09/27 06:06:08;;;;;;;5.10;3.22;;;;;;;25.08;43.18;95284.47;4990252;28;20171;-75
2021/09/27 06:08:33;;;;;;;5.25;3.25;;;;;;;25.17;42.04;95286.88;4986901;28;20030;-75
2021/09/27 06:11:21;;;;;;;5.93;3.22;;;;;;;25.29;42.30;95288.22;4988929;28;20500;-74
2021/09/27 06:13:47;;;;;;;5.18;3.50;;;;;;;25.22;42.03;95266.19;4985542;28;20025;-73
2021/09/27 06:16:25;;;;;;;5.53;3.67;;;;;;;25.44;42.01;95283.03;4971829;28;20026;-73
2021/09/27 06:19:28;;;;;;;5.82;3.08;;;;;;;25.49;41.33;95290.44;4981272;28;20086;-73
2021/09/27 06:22:30;;;;;;;4.30;3.33;;;;;;;25.53;41.70;95285.41;4987031;28;20574;-73
2021/09/27 06:25:01;;;;;;;5.47;3.38;;;;;;;25.61;41.37;95275.38;4972022;28;20046;-73
2021/09/27 06:27:48;;;;;;;6.35;3.75;;;;;;;25.60;41.40;95273.88;4985130;28;20034;-73
2021/09/27 06:30:48;;;;;;;6.55;3.25;;;;;;;25.69;41.27;95282.50;4983935;28;20531;-70
2021/09/27 06:33:19;;;;;;;8.57;4.13;;;;;;;25.83;40.55;95271.09;4988422;28;20744;-76
2021/09/27 06:35:45;;;;;;;7.28;4.47;;;;;;;26.10;39.55;95289.13;4984472;28;20133;-76
2021/09/27 06:38:11;;;;;;;9.23;5.03;;;;;;;25.92;39.37;95257.03;5002231;28;20022;-76
2021/09/27 06:40:38;;;;;;;10.25;4.88;;;;;;;25.97;39.67;95291.78;4992709;28;20038;-75
2021/09/27 06:43:03;;;;;;;12.10;5.60;;;;;;;26.04;39.05;95302.16;5003184;28;20038;-76
2021/09/27 06:45:29;;;;;;;12.90;5.75;;;;;;;26.09;38.96;95287.63;4976908;28;20065;-75
2021/09/27 06:47:55;;;;;;;10.15;5.47;;;;;;;25.94;38.89;95298.31;5000680;28;20037;-74
2021/09/27 06:50:21;;;;;;;9.20;5.30;;;;;;;25.95;39.22;95288.84;4989095;28;20408;-76
2021/09/27 06:52:46;;;;;;;10.85;5.50;;;;;;;25.89;39.30;95298.41;4989303;28;20038;-76
2021/09/27 06:55:13;;;;;;;12.45;5.70;;;;;;;25.86;38.77;95308.38;4989660;28;20739;-75
2021/09/27 06:57:38;;;;;;;11.88;6.60;;;;;;;26.02;39.06;95299.22;4984533;28;20033;-75
2021/09/27 07:00:05;;;;;;;9.90;5.82;;;;;;;26.01;38.24;95278.56;4985045;28;20109;-75
2021/09/27 07:02:30;;;;;;;13.43;5.78;;;;;;;25.92;38.72;95289.88;4988638;28;20121;-76
2021/09/27 07:04:56;;;;;;;9.25;5.53;;;;;;;25.93;38.42;95291.38;4989422;28;20033;-76
2021/09/27 07:07:21;;;;;;;11.70;5.85;;;;;;;25.91;39.10;95288.41;4989885;28;20033;-75
2021/09/27 07:09:47;;;;;;;14.15;5.78;;;;;;;25.94;38.84;95281.88;4989763;28;20550;-75
2021/09/27 07:12:12;;;;;;;11.07;5.60;;;;;;;25.89;39.21;95282.72;4984658;28;20039;-75
2021/09/27 07:14:38;;;;;;;10.15;5.38;;;;;;;26.01;38.23;95275.81;4984828;28;20030;-75
2021/09/27 07:17:04;;;;;;;10.25;5.65;;;;;;;25.69;39.50;95265.34;4996464;28;20476;-75
2021/09/27 07:19:29;;;;;;;11.90;6.00;;;;;;;25.74;38.83;95267.25;5008704;28;20389;-75
2021/09/27 07:21:55;;;;;;;16.15;5.55;;;;;;;25.79;38.67;95275.41;4994586;28;20092;-75
2021/09/27 07:24:24;;;;;;;7.50;5.45;;;;;;;25.47;39.44;95249.19;5007441;28;20022;-75
2021/09/27 07:26:49;;;;;;;10.10;5.05;;;;;;;25.65;39.46;95260.19;5009505;28;20033;-75
2021/09/27 07:29:14;;;;;;;10.10;5.53;;;;;;;25.78;38.78;95262.22;5015065;28;20030;-75
2021/09/27 07:31:40;;;;;;;10.63;5.40;;;;;;;25.62;39.15;95255.72;5021865;28;20037;-76
2021/09/27 07:34:06;;;;;;;8.75;4.82;;;;;;;25.60;39.48;95262.94;5013857;28;20018;-75
2021/09/27 07:36:31;;;;;;;11.50;5.35;;;;;;;25.57;39.54;95255.78;5009226;28;20069;-75
2021/09/27 07:38:57;;;;;;;6.70;4.65;;;;;;;25.55;40.00;95255.56;5007934;28;20021;-75
2021/09/27 07:41:22;;;;;;;10.70;5.07;;;;;;;25.62;40.01;95261.19;4996811;28;20030;-76
2021/09/27 07:43:48;;;;;;;9.80;5.30;;;;;;;25.79;39.90;95253.50;5021015;28;20029;-75
2021/09/27 07:46:15;;;;;;;11.07;5.10;;;;;;;25.78;39.37;95256.75;5007190;28;20041;-76
2021/09/27 07:48:41;;;;;;;10.48;5.05;;;;;;;25.80;40.03;95255.72;5006363;28;20030;-76
2021/09/27 07:51:06;;;;;;;8.23;4.75;;;;;;;25.94;39.71;95260.00;5007082;28;20025;-76
2021/09/27 07:53:32;;;;;;;9.73;5.18;;;;;;;25.80;39.60;95244.78;5008236;28;20467;-75
2021/09/27 07:55:57;;;;;;;12.05;5.75;;;;;;;25.81;39.42;95257.22;4994159;28;20570;-76
2021/09/27 07:58:24;;;;;;;16.58;7.15;;;;;;;25.89;39.54;95252.63;5023136;28;20029;-76
2021/09/27 08:00:50;;;;;;;15.13;7.65;;;;;;;25.91;40.07;95261.03;4993972;28;20114;-76
2021/09/27 08:03:15;;;;;;;10.00;5.68;;;;;;;25.77;40.24;95255.28;5000403;28;20066;-76
2021/09/27 08:05:42;;;;;;;10.90;5.95;;;;;;;25.61;39.78;95226.16;4987393;28;20058;-74
2021/09/27 08:08:07;;;;;;;14.18;6.35;;;;;;;25.74;40.02;95240.66;4977770;28;20038;-75
2021/09/27 08:10:34;;;;;;;17.00;7.07;;;;;;;25.91;39.60;95255.56;4982607;28;20692;-75
2021/09/27 08:13:00;;;;;;;21.15;6.93;;;;;;;25.85;40.31;95252.16;4987324;28;20467;-75
2021/09/27 08:15:27;;;;;;;12.52;6.20;;;;;;;25.88;39.88;95262.06;4987579;28;20022;-74
2021/09/27 08:17:53;;;;;;;15.68;6.38;;;;;;;25.79;40.20;95236.38;4986961;28;20026;-72
2021/09/27 08:20:27;;;;;;;11.45;6.28;;;;;;;25.71;40.25;95224.53;4987649;28;20100;-80
2021/09/27 08:22:53;;;;;;;12.50;6.32;;;;;;;25.97;39.60;95252.75;4984769;28;20042;-79
2021/09/27 08:25:19;;;;;;;22.20;6.57;;;;;;;26.09;39.41;95237.63;5004021;28;20031;-79
2021/09/27 08:27:45;;;;;;;16.38;7.47;;;;;;;26.02;39.71;95244.47;4987650;28;20041;-78
2021/09/27 08:30:12;;;;;;;11.80;6.22;;;;;;;25.94;39.60;95237.38;4988496;28;20477;-79
2021/09/27 08:32:38;;;;;;;13.90;6.35;;;;;;;26.03;40.26;95240.44;4987231;28;20057;-79
2021/09/27 08:35:03;;;;;;;16.50;6.72;;;;;;;26.00;39.45;95236.00;4986965;28;20248;-78
2021/09/27 08:37:29;;;;;;;13.43;6.13;;;;;;;26.02;40.15;95244.47;4988004;28;20120;-79
2021/09/27 08:39:56;;;;;;;16.95;6.68;;;;;;;26.00;39.81;95236.00;4987357;28;20444;-78
2021/09/27 08:42:25;;;;;;;12.35;5.85;;;;;;;25.94;40.15;95249.03;4988534;28;20030;-79
2021/09/27 08:45:08;;;;;;;12.07;5.93;;;;;;;26.05;39.82;95226.25;4987107;28;20030;-77
2021/09/27 08:47:44;;;;;;;10.75;5.53;;;;;;;26.07;39.59;95224.47;4981148;28;20056;-79
2021/09/27 08:50:31;;;;;;;10.95;5.10;;;;;;;26.03;40.33;95229.50;4986913;28;20022;-79
2021/09/27 08:52:56;;;;;;;13.95;5.07;;;;;;;25.92;40.52;95229.69;4987260;28;20590;-79
2021/09/27 08:55:22;;;;;;;10.45;5.10;;;;;;;25.86;40.19;95226.28;4988291;28;20034;-79
2021/09/27 08:57:53;;;;;;;13.00;5.50;;;;;;;25.87;39.82;95222.31;4989673;28;20030;-79
2021/09/27 09:00:26;;;;;;;8.82;4.90;;;;;;;25.88;40.29;95217.56;4992520;28;20092;-79
2021/09/27 09:03:09;;;;;;;11.73;4.95;;;;;;;25.88;40.01;95218.28;4991955;28;20177;-79
2021/09/27 09:05:54;;;;;;;7.55;4.40;;;;;;;25.80;39.78;95217.41;4990491;28;20038;-79
2021/09/27 09:08:41;;;;;;;11.93;4.82;;;;;;;25.79;39.89;95221.41;4990840;28;20072;-80
2021/09/27 09:11:12;;;;;;;8.77;4.78;;;;;;;25.80;39.83;95216.69;4991335;28;20113;-78
2021/09/27 09:13:52;;;;;;;9.68;4.18;;;;;;;25.79;39.96;95215.94;4991568;28;20030;-78
2021/09/27 09:16:19;;;;;;;7.28;3.70;;;;;;;25.58;40.18;95177.94;4971756;28;20540;-78
2021/09/27 09:18:54;;;;;;;11.55;4.47;;;;;;;25.75;40.52;95209.28;4988393;28;20037;-76
2021/09/27 09:21:24;;;;;;;9.38;4.13;;;;;;;25.59;40.66;95190.34;4974493;28;20062;-75
2021/09/27 09:23:52;;;;;;;9.32;4.50;;;;;;;25.70;40.66;95217.59;4990114;28;20058;-75
2021/09/27 09:26:21;;;;;;;21.05;5.90;;;;;;;25.76;41.72;95199.09;4973171;28;20037;-73
2021/09/27 09:28:48;;;;;;;13.27;6.22;;;;;;;25.67;41.25;95186.53;4994109;28;20034;-72
2021/09/27 09:31:33;;;;;;;35.80;7.97;;;;;;;25.76;42.09;95204.56;4992615;28;20036;-73
2021/09/27 09:34:27;;;;;;;20.25;6.97;;;;;;;25.91;41.16;95187.16;4989252;28;20462;-73
2021/09/27 09:36:55;;;;;;;13.82;6.75;;;;;;;26.11;41.41;95192.03;4990010;28;20022;-71
2021/09/27 09:39:27;;;;;;;16.75;6.05;;;;;;;26.13;41.08;95189.53;4989785;28;20025;-73
2021/09/27 09:41:55;;;;;;;36.78;9.13;;;;;;;26.11;41.52;95175.59;4989481;28;20053;-71
2021/09/27 09:44:38;;;;;;;13.85;7.20;;;;;;;26.40;41.53;95180.13;4988293;28;20611;-74
2021/09/27 09:47:20;;;;;;;17.60;6.82;;;;;;;26.47;41.08;95183.00;4989908;28;20521;-75
2021/09/27 09:50:02;;;;;;;17.83;7.85;;;;;;;26.51;40.91;95168.97;4991271;28;20475;-77
2021/09/27 09:53:03;;;;;;;15.52;7.75;;;;;;;26.62;40.73;95175.00;4991063;28;20651;-76
2021/09/27 09:55:33;;;;;;;18.58;8.23;;;;;;;26.68;40.70;95172.13;4920889;29;20051;-76
2021/09/27 09:58:02;;;;;;;13.70;6.07;;;;;;;26.76;40.38;95170.97;4973320;28;20074;-75
2021/09/27 10:00:42;;;;;;;12.88;6.05;;;;;;;26.94;39.92;95170.88;4990229;28;20108;-71
2021/09/27 10:03:08;;;;;;;12.32;5.57;;;;;;;26.94;39.72;95173.63;4989160;28;20038;-72
2021/09/27 10:05:39;;;;;;;10.73;5.15;;;;;;;27.10;39.36;95169.06;4988906;28;20069;-71
2021/09/27 10:08:05;;;;;;;10.68;4.95;;;;;;;27.03;39.28;95170.44;4987396;28;20037;-72
2021/09/27 10:10:36;;;;;;;7.65;4.57;;;;;;;27.12;39.07;95161.78;4988323;28;20030;-74
2021/09/27 10:13:23;;;;;;;14.05;5.28;;;;;;;27.17;38.97;95158.19;4987555;28;20121;-71
2021/09/27 10:15:49;;;;;;;10.10;5.20;;;;;;;27.21;38.79;95169.56;4999278;28;20026;-71
2021/09/27 10:18:25;;;;;;;8.10;4.65;;;;;;;27.34;38.74;95150.34;4990442;28;20025;-73
2021/09/27 10:20:59;;;;;;;8.68;4.72;;;;;;;27.30;38.59;95150.66;4989659;28;20037;-74
2021/09/27 10:23:39;;;;;;;10.18;4.40;;;;;;;27.44;38.34;95148.63;4975447;28;20656;-73
2021/09/27 10:26:33;;;;;;;9.43;4.32;;;;;;;27.52;38.21;95138.47;4988443;28;20449;-72
2021/09/27 10:29:05;;;;;;;11.50;3.85;;;;;;;27.59;38.48;95132.34;4988964;28;20030;-73
2021/09/27 10:31:31;;;;;;;8.82;4.60;;;;;;;27.69;37.41;95130.63;4988849;28;20097;-71
2021/09/27 10:34:00;;;;;;;7.78;3.70;;;;;;;27.70;37.87;95126.59;4986107;28;20505;-73
2021/09/27 10:36:39;;;;;;;7.17;4.03;;;;;;;27.73;37.41;95131.00;4971237;28;20022;-73
2021/09/27 10:39:06;;;;;;;8.80;4.65;;;;;;;27.78;37.49;95122.66;4985188;28;20249;-72
2021/09/27 10:41:36;;;;;;;9.52;3.90;;;;;;;27.80;37.12;95114.59;4990687;28;20030;-73
2021/09/27 10:44:20;;;;;;;9.52;3.50;;;;;;;27.81;37.27;95111.31;4991158;28;20026;-74
2021/09/27 10:46:47;;;;;;;10.88;4.10;;;;;;;27.88;36.59;95096.94;5005856;28;20034;-73
2021/09/27 10:49:26;;;;;;;7.82;3.53;;;;;;;27.93;36.43;95107.03;4998190;28;20030;-75
2021/09/27 10:51:54;;;;;;;6.80;3.85;;;;;;;27.92;35.98;95094.59;5004498;28;20025;-75
2021/09/27 10:54:34;;;;;;;4.95;3.22;;;;;;;27.95;35.86;95098.25;4989366;28;20053;-79
2021/09/27 10:56:59;;;;;;;10.43;3.47;;;;;;;27.86;35.83;95085.00;4988616;28;20045;-79
2021/09/27 10:59:53;;;;;;;8.13;3.13;;;;;;;27.95;35.61;95099.00;4986788;28;20042;-78
2021/09/27 11:02:29;;;;;;;5.28;2.95;;;;;;;27.95;35.50;95088.03;4983738;28;20109;-76
2021/09/27 11:05:23;;;;;;;6.28;3.13;;;;;;;28.02;35.82;95081.84;4987572;28;20030;-77
2021/09/27 11:07:53;;;;;;;6.97;3.25;;;;;;;27.96;35.68;95067.53;4987703;28;20543;-77
2021/09/27 11:10:25;;;;;;;;;;;;;;;28.08;35.18;95079.69;4987719;28;20413;-77
2021/09/27 11:12:51;;;;;;;9.60;3.40;;;;;;;27.93;35.90;95062.38;4986121;28;19925;-77
2021/09/27 11:15:20;;;;;;;7.15;3.53;;;;;;;28.07;36.10;95072.00;4989220;28;20321;-77
2021/09/27 11:17:47;;;;;;;5.97;3.38;;;;;;;27.97;35.62;95060.75;4989305;28;20072;-78
2021/09/27 11:20:14;;;;;;;5.63;3.38;;;;;;;27.98;36.05;95065.00;4989882;28;20033;-74
2021/09/27 11:22:54;;;;;;;5.38;3.35;;;;;;;27.71;35.87;95024.50;4998165;28;20112;-73
2021/09/27 11:25:22;;;;;;;6.00;3.33;;;;;;;27.97;36.02;95058.03;4982433;28;20110;-75
2021/09/27 11:28:10;;;;;;;4.60;3.25;;;;;;;27.94;36.40;95053.59;4982424;28;20042;-77
2021/09/27 11:31:04;;;;;;;5.80;3.55;;;;;;;27.90;36.46;95047.72;4986749;28;20189;-77
2021/09/27 11:33:29;;;;;;;5.18;3.10;;;;;;;27.80;36.58;95046.72;4987717;28;20050;-76
2021/09/27 11:35:56;;;;;;;5.88;3.08;;;;;;;27.76;36.48;95037.38;4989000;28;20038;-78
2021/09/27 11:38:38;;;;;;;5.70;3.42;;;;;;;27.73;36.62;95041.91;4989099;28;20039;-77
2021/09/27 11:41:10;;;;;;;5.93;3.40;;;;;;;27.70;36.86;95038.75;4995453;28;20041;-76
2021/09/27 11:43:45;;;;;;;7.15;3.28;;;;;;;27.65;36.87;95039.66;4995915;28;20500;-77
2021/09/27 11:46:22;;;;;;;6.10;3.10;;;;;;;27.61;36.86;95036.50;4989727;28;20022;-75
2021/09/27 11:49:02;;;;;;;5.93;3.10;;;;;;;27.43;36.80;95026.47;4988671;28;20112;-76
2021/09/27 11:51:30;;;;;;;5.60;3.40;;;;;;;27.54;36.75;95042.66;4987673;28;20106;-76
2021/09/27 11:54:01;;;;;;;6.75;3.10;;;;;;;27.50;36.59;95039.53;4988574;28;20054;-75
2021/09/27 11:56:34;;;;;;;5.85;3.42;;;;;;;27.38;36.48;95035.53;4988211;28;20045;-77
2021/09/27 11:59:03;;;;;;;7.10;3.45;;;;;;;27.50;36.71;95034.03;4986505;28;20136;-77
2021/09/27 12:01:59;;;;;;;6.22;3.15;;;;;;;27.46;36.80;95030.88;4987213;28;20429;-76
2021/09/27 12:04:43;;;;;;;4.30;2.88;;;;;;;27.45;36.70;95030.13;4988064;28;20057;-76
2021/09/27 12:07:11;;;;;;;5.93;3.20;;;;;;;27.19;36.74;95002.09;4987957;28;20030;-77
2021/09/27 12:09:54;;;;;;;8.13;2.90;;;;;;;27.17;37.13;94988.19;4986764;28;20089;-76
2021/09/27 12:12:25;;;;;;;5.00;3.17;;;;;;;27.31;37.05;95019.78;4986743;28;20421;-77